Time;durP1;ratioP1;P1;durP2;ratioP2;P2;SDS_P1;SDS_P2;PMS_P1;PMS_P2;Temp;Humidity;BMP_temperature;BMP_pressure;BME280_temperature;BME280_humidity;BME280_pressure;Samples;Min_cycle;Max_cycle;Signal;HPM_P1;HPM_P2
2022/12/09 05:22:37;;;;;;;4.97;2.78;;;;;;;-2.12;100.00;99069.34;5088986;28;20324;-68
2022/12/09 05:25:03;;;;;;;7.00;3.05;;;;;;;-2.14;100.00;99073.88;5089278;28;20094;-68
2022/12/09 05:27:28;;;;;;;5.72;2.55;;;;;;;-2.13;100.00;99073.75;5089063;28;20078;-69
2022/12/09 05:29:54;;;;;;;4.38;3.25;;;;;;;-2.06;100.00;99072.31;5089134;28;20036;-69
2022/12/09 05:32:20;;;;;;;4.10;2.63;;;;;;;-2.04;100.00;99070.38;5089910;28;20109;-68
2022/12/09 05:34:45;;;;;;;5.70;2.63;;;;;;;-2.02;100.00;99068.50;5089105;28;20067;-69
2022/12/09 05:37:14;;;;;;;4.45;2.97;;;;;;;-2.17;100.00;99066.25;5089336;28;20079;-68
2022/12/09 05:39:40;;;;;;;6.28;3.40;;;;;;;-2.15;100.00;99066.97;5088876;28;20566;-68
2022/12/09 05:42:06;;;;;;;7.38;3.22;;;;;;;-2.16;100.00;99068.75;5088438;28;20040;-68
2022/12/09 05:44:31;;;;;;;13.65;4.80;;;;;;;-2.12;100.00;99074.56;5088794;28;20047;-69
2022/12/09 05:46:57;;;;;;;8.95;4.53;;;;;;;-2.07;100.00;99064.59;5076927;28;20028;-69
2022/12/09 05:49:22;;;;;;;8.55;4.05;;;;;;;-2.06;100.00;99064.47;5085568;28;20347;-68
2022/12/09 05:51:47;;;;;;;9.70;4.60;;;;;;;-2.06;100.00;99064.47;5088155;28;20060;-68
2022/12/09 05:54:13;;;;;;;4.05;3.22;;;;;;;-2.12;100.00;99058.91;5088542;28;20048;-70
2022/12/09 05:56:38;;;;;;;9.52;4.32;;;;;;;-2.19;100.00;99059.41;5088391;28;20082;-68
2022/12/09 05:59:04;;;;;;;6.65;3.08;;;;;;;-2.21;100.00;99055.25;5088403;28;20033;-69
2022/12/09 06:01:29;;;;;;;9.50;4.85;;;;;;;-2.20;100.00;99056.91;5088254;28;20036;-69
2022/12/09 06:03:54;;;;;;;7.82;4.38;;;;;;;-2.22;100.00;99054.44;5088524;28;20086;-67
2022/12/09 06:06:22;;;;;;;9.63;4.25;;;;;;;-2.15;100.00;99051.31;5088245;28;20040;-69
2022/12/09 06:08:48;;;;;;;13.40;4.40;;;;;;;-2.04;100.00;99051.28;5088224;28;20041;-69
2022/12/09 06:11:19;;;;;;;9.13;4.60;;;;;;;-2.05;100.00;99044.41;5087919;28;20036;-69
2022/12/09 06:13:45;;;;;;;10.05;4.82;;;;;;;-2.02;100.00;99045.03;5086887;28;20028;-68
2022/12/09 06:16:13;;;;;;;9.23;5.85;;;;;;;-1.98;100.00;99046.41;5088028;28;20020;-67
2022/12/09 06:18:38;;;;;;;11.52;5.65;;;;;;;-1.91;100.00;99049.34;5088115;28;20468;-69
2022/12/09 06:21:05;;;;;;;7.35;4.55;;;;;;;-1.89;100.00;99046.63;5087650;28;20032;-69
2022/12/09 06:23:31;;;;;;;10.80;5.43;;;;;;;-1.94;100.00;99045.22;5088017;28;20097;-67
2022/12/09 06:25:56;;;;;;;10.75;4.70;;;;;;;-1.87;100.00;99042.94;5087808;28;20036;-69
2022/12/09 06:28:21;;;;;;;12.65;5.35;;;;;;;-1.94;100.00;99047.84;5087970;28;20478;-68
2022/12/09 06:30:47;;;;;;;13.52;5.90;;;;;;;-1.84;100.00;99047.09;5087759;28;20047;-69
2022/12/09 06:33:12;;;;;;;13.02;6.68;;;;;;;-1.80;100.00;99038.88;5078764;28;20036;-68
2022/12/09 06:35:37;;;;;;;10.85;4.15;;;;;;;-1.77;100.00;99043.84;5074401;28;20543;-69
2022/12/09 06:38:03;;;;;;;12.85;5.90;;;;;;;-1.76;100.00;99048.13;5074407;28;20044;-69
2022/12/09 06:40:28;;;;;;;13.02;5.53;;;;;;;-1.76;100.00;99042.91;5073956;28;20068;-69
2022/12/09 06:42:54;;;;;;;9.35;4.93;;;;;;;-1.72;100.00;99048.72;5074359;28;20041;-69
2022/12/09 06:45:20;;;;;;;11.18;5.32;;;;;;;-1.72;100.00;99048.72;5074277;28;20040;-69
2022/12/09 06:47:46;;;;;;;8.38;5.57;;;;;;;-1.76;100.00;99053.38;5073004;28;20552;-69
2022/12/09 06:50:12;;;;;;;11.00;4.55;;;;;;;-1.65;100.00;99057.69;5073755;28;20094;-69
2022/12/09 06:52:38;;;;;;;8.85;4.85;;;;;;;-1.70;100.00;99059.84;5074185;28;20493;-69
2022/12/09 06:55:07;;;;;;;10.27;5.10;;;;;;;-1.70;100.00;99049.41;5072310;28;20062;-69
2022/12/09 06:57:33;;;;;;;14.38;4.70;;;;;;;-1.66;100.00;99056.88;5073925;28;20093;-69
2022/12/09 06:59:58;;;;;;;12.73;6.43;;;;;;;-1.62;100.00;99052.25;5074129;28;20207;-69
2022/12/09 07:02:24;;;;;;;11.63;6.57;;;;;;;-1.60;100.00;99059.94;5073745;28;20047;-69
2022/12/09 07:04:53;;;;;;;8.23;5.40;;;;;;;-1.64;100.00;99062.78;5073944;28;20037;-69
2022/12/09 07:07:19;;;;;;;9.35;5.93;;;;;;;-1.66;100.00;99054.25;5073708;28;20396;-69
2022/12/09 07:09:45;;;;;;;10.02;6.07;;;;;;;-1.68;100.00;99050.94;5073868;28;20040;-69
2022/12/09 07:12:10;;;;;;;8.52;5.07;;;;;;;-1.67;100.00;99055.22;5073306;28;20039;-69
2022/12/09 07:14:37;;;;;;;10.85;5.35;;;;;;;-1.65;100.00;99052.47;5073665;28;20041;-69
2022/12/09 07:17:03;;;;;;;10.63;5.68;;;;;;;-1.64;100.00;99046.28;5072368;28;20047;-69
2022/12/09 07:19:29;;;;;;;7.13;4.50;;;;;;;-1.66;100.00;99035.97;5073607;28;20056;-69
2022/12/09 07:21:56;;;;;;;8.38;5.25;;;;;;;-1.62;100.00;99048.81;5073212;28;20154;-69
2022/12/09 07:24:21;;;;;;;11.23;5.25;;;;;;;-1.65;100.00;99040.25;5073530;28;20078;-69
2022/12/09 07:26:47;;;;;;;11.48;5.57;;;;;;;-1.57;100.00;99037.00;5073413;28;20055;-69
2022/12/09 07:29:12;;;;;;;17.60;6.97;;;;;;;-1.53;100.00;99037.59;5073520;28;20508;-69
2022/12/09 07:31:38;;;;;;;14.70;5.97;;;;;;;-1.56;100.00;99036.06;5073077;28;20043;-69
2022/12/09 07:34:03;;;;;;;12.85;5.65;;;;;;;-1.54;100.00;99035.94;5073352;28;20040;-69
2022/12/09 07:36:31;;;;;;;9.55;4.80;;;;;;;-1.50;100.00;99047.78;5073263;28;20044;-69
2022/12/09 07:38:58;;;;;;;10.23;5.28;;;;;;;-1.53;100.00;99038.41;5073257;28;20048;-69
2022/12/09 07:41:25;;;;;;;8.77;4.90;;;;;;;-1.53;100.00;99038.41;5072834;28;20086;-69
2022/12/09 07:43:50;;;;;;;28.88;5.35;;;;;;;-1.49;100.00;99037.22;5072615;28;20119;-69
2022/12/09 07:46:17;;;;;;;10.85;5.22;;;;;;;-1.43;100.00;99043.72;5072806;28;20131;-69
2022/12/09 07:48:43;;;;;;;8.32;4.68;;;;;;;-1.43;100.00;99036.72;5073074;28;20036;-69
2022/12/09 07:51:08;;;;;;;10.90;5.55;;;;;;;-1.38;100.00;99039.75;5072529;28;20401;-69
2022/12/09 07:53:35;;;;;;;7.28;4.20;;;;;;;-1.38;100.00;99042.38;5072921;28;20181;-70
2022/12/09 07:56:03;;;;;;;13.45;5.40;;;;;;;-1.31;100.00;99042.69;5072892;28;20126;-69
2022/12/09 07:58:29;;;;;;;8.45;5.85;;;;;;;-1.34;100.00;99040.34;5072819;28;20041;-69
2022/12/09 08:00:54;;;;;;;8.90;5.38;;;;;;;-1.37;100.00;99035.34;5072444;28;20031;-69
2022/12/09 08:03:20;;;;;;;12.82;5.55;;;;;;;-1.32;100.00;99046.25;5072667;28;20371;-70
2022/12/09 08:05:49;;;;;;;9.85;6.55;;;;;;;-1.31;100.00;99042.69;5071648;28;20058;-68
2022/12/09 08:08:14;;;;;;;11.18;5.45;;;;;;;-1.25;100.00;99043.97;5072653;28;20033;-68
2022/12/09 08:10:40;;;;;;;12.95;5.50;;;;;;;-1.25;100.00;99038.75;5071087;28;20093;-67
2022/12/09 08:13:06;;;;;;;9.98;4.40;;;;;;;-1.18;100.00;99042.50;5072540;28;20062;-67
2022/12/09 08:15:31;;;;;;;15.23;5.80;;;;;;;-1.16;100.00;99041.44;5072502;28;20643;-68
2022/12/09 08:17:57;;;;;;;7.80;5.43;;;;;;;-1.12;100.00;99037.59;5072808;28;20029;-68
2022/12/09 08:20:22;;;;;;;20.67;5.93;;;;;;;-1.07;100.00;99037.22;5072110;28;20040;-69
2022/12/09 08:22:47;;;;;;;15.02;5.97;;;;;;;-1.07;100.00;99028.53;5072479;28;20064;-68
2022/12/09 08:25:13;;;;;;;13.95;5.68;;;;;;;-1.00;100.00;99034.91;5072272;28;20450;-68
2022/12/09 08:27:38;;;;;;;7.32;5.13;;;;;;;-0.89;100.00;99032.22;5072353;28;20046;-68
2022/12/09 08:30:04;;;;;;;11.80;5.60;;;;;;;-0.89;100.00;99030.44;5072196;28;20048;-69
2022/12/09 08:32:30;;;;;;;11.77;5.15;;;;;;;-0.84;100.00;99030.06;5072110;28;20123;-69
2022/12/09 08:34:55;;;;;;;11.20;4.30;;;;;;;-0.82;100.00;99034.19;5072251;28;20118;-68
2022/12/09 08:37:21;;;;;;;8.38;4.68;;;;;;;-0.66;100.00;99031.09;5072015;28;20060;-68
2022/12/09 08:39:46;;;;;;;10.00;4.72;;;;;;;-0.66;100.00;99028.47;5072234;28;20040;-67
2022/12/09 08:42:12;;;;;;;10.77;5.65;;;;;;;-0.55;100.00;99024.94;5071833;28;20033;-68
2022/12/09 08:44:38;;;;;;;9.55;5.43;;;;;;;-0.56;100.00;99023.28;5072201;28;20041;-69
2022/12/09 08:47:04;;;;;;;8.38;5.00;;;;;;;-0.44;100.00;99024.84;5072061;28;20040;-69
2022/12/09 08:49:30;;;;;;;14.77;6.53;;;;;;;-0.29;100.00;99028.75;5071936;28;20052;-68
2022/12/09 08:51:55;;;;;;;6.57;5.07;;;;;;;-0.19;100.00;99020.94;5071607;28;20036;-68
2022/12/09 08:54:21;;;;;;;12.85;5.80;;;;;;;0.12;100.00;99016.41;5072190;28;20043;-67
2022/12/09 08:56:48;;;;;;;10.35;4.70;;;;;;;0.25;100.00;99011.72;5071867;28;20052;-69
2022/12/09 08:59:15;;;;;;;8.50;5.27;;;;;;;0.53;99.20;98998.78;5071913;28;20593;-68
2022/12/09 09:01:40;;;;;;;10.65;4.88;;;;;;;0.72;98.19;98997.91;5071610;28;20029;-69
2022/12/09 09:04:08;;;;;;;8.18;4.15;;;;;;;0.99;96.91;99005.03;5071892;28;20119;-69
2022/12/09 09:06:35;;;;;;;10.10;5.43;;;;;;;1.26;94.94;99004.25;5071695;28;20447;-68
2022/12/09 09:09:00;;;;;;;9.70;5.53;;;;;;;1.50;93.31;98999.31;5071908;28;20078;-69
2022/12/09 09:11:26;;;;;;;8.30;5.82;;;;;;;1.76;91.24;99003.84;5071497;28;20044;-69
2022/12/09 09:13:51;;;;;;;17.45;5.78;;;;;;;1.76;91.01;98998.59;5071788;28;20064;-67
2022/12/09 09:16:22;;;;;;;14.77;5.22;;;;;;;1.80;89.71;99000.78;5071659;28;20509;-69
2022/12/09 09:18:49;;;;;;;17.80;6.43;;;;;;;1.67;88.96;99002.94;5071815;28;20044;-68
2022/12/09 09:21:16;;;;;;;9.40;5.38;;;;;;;1.54;89.34;99005.91;5071338;28;20033;-68
2022/12/09 09:23:42;;;;;;;8.70;5.47;;;;;;;1.56;89.48;98990.00;5071689;28;20382;-68
2022/12/09 09:26:10;;;;;;;10.68;5.75;;;;;;;1.52;90.63;98992.09;5071539;28;20082;-68
2022/12/09 09:28:36;;;;;;;10.45;5.55;;;;;;;1.46;91.17;98992.69;5071562;28;20047;-58
2022/12/09 09:31:04;;;;;;;11.27;5.60;;;;;;;1.08;93.51;98985.81;5071082;28;20029;-56
2022/12/09 09:33:29;;;;;;;;;;;;;;;1.21;93.14;98991.56;5071900;28;20047;-68
2022/12/09 09:35:56;;;;;;;7.90;4.85;;;;;;;1.01;92.79;98979.47;5071529;28;19912;-69
2022/12/09 09:38:22;;;;;;;6.78;4.57;;;;;;;1.04;94.27;98987.03;5071510;28;20489;-68
2022/12/09 09:40:47;;;;;;;9.82;5.50;;;;;;;0.98;93.51;98985.84;5071185;28;20037;-68
2022/12/09 09:43:15;;;;;;;12.00;6.07;;;;;;;1.04;93.87;98987.03;5071454;28;20040;-68
2022/12/09 09:45:42;;;;;;;8.77;5.30;;;;;;;1.08;94.33;98985.81;5071308;28;20469;-68
2022/12/09 09:48:14;;;;;;;17.23;6.38;;;;;;;1.05;94.54;98981.69;5070957;28;20059;-68
2022/12/09 09:51:02;;;;;;;9.10;5.63;;;;;;;1.12;94.60;98978.50;5070864;28;20076;-69
2022/12/09 09:53:33;;;;;;;9.27;5.22;;;;;;;1.09;94.60;98982.22;5062979;28;20054;-69
2022/12/09 09:56:05;;;;;;;7.45;6.15;;;;;;;1.07;95.34;98978.91;5071349;28;20044;-68
2022/12/09 09:58:42;;;;;;;9.60;4.95;;;;;;;1.24;94.46;98970.28;5071548;28;20044;-68
2022/12/09 10:01:12;;;;;;;10.20;5.45;;;;;;;1.23;93.87;98976.47;5071477;28;20477;-68
2022/12/09 10:03:56;;;;;;;10.82;5.05;;;;;;;1.32;94.21;98970.38;5071626;28;20032;-69
2022/12/09 10:06:35;;;;;;;9.70;5.20;;;;;;;1.33;93.48;98976.47;5071325;28;20040;-69
2022/12/09 10:09:32;;;;;;;9.35;5.13;;;;;;;1.43;93.56;98976.41;5074047;28;20496;-68
2022/12/09 10:12:15;;;;;;;14.63;6.82;;;;;;;1.39;94.15;98969.81;5074525;28;20135;-69
2022/12/09 10:14:45;;;;;;;11.05;6.60;;;;;;;1.38;94.32;98970.78;5074845;28;20032;-68
2022/12/09 10:17:25;;;;;;;9.00;5.50;;;;;;;1.42;95.05;98974.75;5074741;28;20111;-68
2022/12/09 10:19:56;;;;;;;11.95;5.45;;;;;;;1.45;94.54;98966.59;5073710;28;20037;-69
2022/12/09 10:22:28;;;;;;;9.07;5.72;;;;;;;1.45;94.31;98964.81;5074497;28;20074;-68
2022/12/09 10:24:56;;;;;;;11.30;5.50;;;;;;;1.54;94.27;98965.72;5074610;28;20166;-69
2022/12/09 10:27:33;;;;;;;14.88;6.70;;;;;;;1.53;94.80;98964.06;5074426;28;20031;-69
2022/12/09 10:30:03;;;;;;;11.73;6.68;;;;;;;1.58;94.24;98959.22;5074453;28;20036;-67
2022/12/09 10:32:32;;;;;;;8.90;5.90;;;;;;;1.57;93.92;98953.13;5074345;28;20032;-68
2022/12/09 10:34:58;;;;;;;9.60;5.18;;;;;;;1.46;93.88;98952.50;5074517;28;20025;-68
2022/12/09 10:37:33;;;;;;;9.40;6.22;;;;;;;1.57;93.47;98953.13;5074415;28;20051;-68
2022/12/09 10:40:08;;;;;;;11.57;6.40;;;;;;;1.59;93.08;98950.34;5074333;28;20071;-68
2022/12/09 10:45:26;;;;;;;14.98;6.30;;;;;;;1.62;92.84;98947.41;5074172;28;20112;-68
2022/12/09 10:47:51;;;;;;;15.60;5.75;;;;;;;1.73;91.87;98939.34;5074519;28;20549;-67
2022/12/09 10:50:31;;;;;;;11.60;5.10;;;;;;;1.71;91.10;98935.22;5073944;28;20492;-68
2022/12/09 10:53:03;;;;;;;16.45;6.00;;;;;;;1.74;91.00;98938.38;5074119;28;20044;-67
2022/12/09 10:55:34;;;;;;;11.48;6.30;;;;;;;1.82;90.34;98935.81;5074067;28;20037;-69
2022/12/09 10:58:15;;;;;;;8.05;5.45;;;;;;;1.81;89.98;98931.53;5074075;28;20040;-67
2022/12/09 11:00:40;;;;;;;12.80;6.93;;;;;;;1.93;89.70;98923.44;5073752;28;20127;-68
2022/12/09 11:03:24;;;;;;;13.70;7.28;;;;;;;1.86;90.24;98926.66;5073907;28;20128;-68
2022/12/09 11:06:19;;;;;;;10.07;5.93;;;;;;;2.06;89.80;98926.53;5073925;28;20043;-67
2022/12/09 11:08:59;;;;;;;10.00;5.95;;;;;;;2.22;89.32;98925.81;5073978;28;20040;-68
2022/12/09 11:11:38;;;;;;;11.55;6.75;;;;;;;2.21;88.17;98927.63;5073434;28;20055;-68
2022/12/09 11:14:33;;;;;;;10.68;6.05;;;;;;;2.22;88.65;98933.69;5073616;28;20058;-69
2022/12/09 11:17:12;;;;;;;14.27;6.35;;;;;;;2.20;88.80;98925.97;5073366;28;20303;-69
2022/12/09 11:19:39;;;;;;;9.88;5.80;;;;;;;2.17;88.86;98921.03;5073607;28;20155;-68
2022/12/09 11:22:21;;;;;;;13.20;6.38;;;;;;;2.24;88.67;98923.88;5071874;28;20035;-68
2022/12/09 11:24:52;;;;;;;11.48;5.90;;;;;;;2.17;88.51;98910.53;5073727;28;20044;-68
2022/12/09 11:27:25;;;;;;;8.68;5.82;;;;;;;2.16;89.09;98920.22;5073439;28;20036;-68
2022/12/09 11:30:18;;;;;;;8.13;4.88;;;;;;;2.11;88.65;98913.75;5073425;28;20075;-69
2022/12/09 11:33:06;;;;;;;16.25;7.03;;;;;;;2.26;88.15;98906.97;5073573;28;20215;-69
2022/12/09 11:35:36;;;;;;;19.15;7.05;;;;;;;2.29;88.56;98903.25;5100228;22;20040;-61
2022/12/09 11:38:23;;;;;;;8.95;5.82;;;;;;;2.33;88.84;98894.06;5075350;28;20116;-64
2022/12/09 11:41:09;;;;;;;12.05;6.72;;;;;;;2.44;87.78;98902.50;5093046;28;20059;-61
2022/12/09 11:43:53;;;;;;;14.87;6.23;;;;;;;2.41;87.75;98900.22;5074980;28;20028;-58
2022/12/09 11:46:25;;;;;;;12.70;6.13;;;;;;;2.37;88.61;98893.59;5092935;28;20047;-60
2022/12/09 11:48:55;;;;;;;15.43;7.45;;;;;;;2.38;88.40;98892.63;5074929;28;20043;-61
2022/12/09 11:51:40;;;;;;;13.00;5.68;;;;;;;2.30;90.81;98892.56;5074362;28;20127;-58
2022/12/09 11:54:19;;;;;;;12.98;5.75;;;;;;;2.32;89.75;98887.16;5092766;28;20040;-59
2022/12/09 11:56:46;;;;;;;19.08;7.03;;;;;;;2.32;88.31;98885.34;5092783;28;20039;-60
2022/12/09 11:59:19;;;;;;;14.23;7.17;;;;;;;2.12;88.55;98891.75;5092809;28;20024;-61
2022/12/09 12:02:03;;;;;;;12.48;6.65;;;;;;;2.00;90.18;98885.91;5092647;28;20032;-62
2022/12/09 12:04:33;;;;;;;14.20;6.50;;;;;;;2.09;90.38;98890.28;5092786;28;20494;-60
2022/12/09 12:07:05;;;;;;;13.57;6.97;;;;;;;2.17;90.25;98889.50;5074797;28;20040;-62
2022/12/09 12:09:40;;;;;;;11.38;5.70;;;;;;;2.12;90.71;98882.09;5093196;28;20044;-61
2022/12/09 12:12:14;;;;;;;11.23;6.22;;;;;;;2.17;90.84;98874.56;5092428;28;20039;-64
2022/12/09 12:14:42;;;;;;;11.52;6.00;;;;;;;2.27;90.72;98879.72;5092518;28;20055;-62
2022/12/09 12:17:33;;;;;;;12.43;6.32;;;;;;;2.22;90.07;98883.78;5092443;28;20114;-62
2022/12/09 12:19:58;;;;;;;13.52;7.40;;;;;;;2.21;91.30;98876.88;5092522;28;20315;-62
2022/12/09 12:22:57;;;;;;;13.85;6.80;;;;;;;2.17;92.18;98882.47;5092148;28;20033;-60
2022/12/09 12:25:46;;;;;;;14.32;7.35;;;;;;;2.41;89.95;98886.22;5092281;28;20043;-60
2022/12/09 12:28:35;;;;;;;11.60;5.72;;;;;;;2.38;89.87;98882.09;5092460;28;20040;-62
2022/12/09 12:31:19;;;;;;;10.15;6.25;;;;;;;2.40;89.70;98881.94;5091332;28;20028;-60
2022/12/09 12:34:13;;;;;;;14.35;6.90;;;;;;;2.33;88.98;98873.03;5092207;28;20044;-59
2022/12/09 12:37:13;;;;;;;13.98;6.45;;;;;;;2.30;89.22;98873.34;5092298;28;20492;-60
2022/12/09 12:39:42;;;;;;;13.90;7.20;;;;;;;2.31;89.72;98886.34;5074438;28;20113;-59
2022/12/09 12:42:13;;;;;;;12.15;6.55;;;;;;;2.38;89.89;98878.66;5091730;28;20031;-61
2022/12/09 12:48:07;;;;;;;11.23;5.53;;;;;;;2.51;88.51;98878.25;5092010;28;20036;-62
2022/12/09 12:50:42;;;;;;;9.93;5.60;;;;;;;2.52;88.97;98877.25;5073351;28;20036;-62
2022/12/09 12:53:27;;;;;;;12.07;5.45;;;;;;;2.65;88.77;98875.03;5073817;28;20527;-61
2022/12/09 12:56:13;;;;;;;14.63;6.15;;;;;;;2.72;87.56;98876.88;5091738;28;20075;-62
2022/12/09 12:59:30;;;;;;;11.27;6.28;;;;;;;2.81;86.59;98869.06;5091602;28;20036;-62
2022/12/09 13:02:18;;;;;;;11.45;6.80;;;;;;;2.69;87.93;98873.75;5077826;28;20044;-62
2022/12/09 13:04:58;;;;;;;15.27;6.15;;;;;;;2.52;89.03;98883.34;5091795;28;20039;-62
2022/12/09 13:07:37;;;;;;;10.85;6.43;;;;;;;2.60;88.63;98887.81;5091518;28;20035;-61
2022/12/09 13:10:34;;;;;;;13.43;6.55;;;;;;;2.62;88.34;98885.88;5073259;28;20046;-62
2022/12/09 13:13:00;;;;;;;13.43;6.28;;;;;;;2.67;87.36;98878.31;5091631;28;20043;-61
2022/12/09 13:15:40;;;;;;;10.50;5.40;;;;;;;2.60;88.59;98875.50;5091504;28;20105;-61
2022/12/09 13:18:11;;;;;;;11.73;6.90;;;;;;;2.70;89.26;98878.84;5091552;28;20127;-62
2022/12/09 13:20:54;;;;;;;11.63;5.90;;;;;;;2.71;88.40;98877.03;5073132;28;20059;-62
2022/12/09 13:23:53;;;;;;;11.38;6.32;;;;;;;2.70;88.63;98875.41;5091478;28;20036;-61
2022/12/09 13:27:12;;;;;;;12.82;6.43;;;;;;;2.67;87.83;98879.19;5091459;28;20028;-62
2022/12/09 13:29:58;;;;;;;9.93;4.55;;;;;;;2.71;87.21;98887.56;5014407;28;20509;-61
2022/12/09 13:32:48;;;;;;;13.45;5.65;;;;;;;2.67;87.59;98878.31;5073574;28;20037;-60
2022/12/09 13:35:30;;;;;;;13.02;6.35;;;;;;;2.70;87.13;98876.22;5071140;28;20081;-63
2022/12/09 13:37:57;;;;;;;13.13;6.13;;;;;;;2.66;88.09;98882.75;5071196;28;20037;-63
2022/12/09 13:40:35;;;;;;;13.55;6.85;;;;;;;2.68;87.24;98874.75;5070791;28;20040;-61
2022/12/09 13:43:01;;;;;;;11.75;6.10;;;;;;;2.59;88.20;98881.75;5072638;28;20067;-62
2022/12/09 13:45:42;;;;;;;19.42;6.32;;;;;;;2.50;89.79;98881.84;5074995;28;20075;-63
2022/12/09 13:48:10;;;;;;;10.52;5.80;;;;;;;2.59;89.91;98884.38;5057198;28;20036;-62
2022/12/09 13:50:48;;;;;;;14.90;6.72;;;;;;;2.60;89.15;98879.94;5056762;28;20040;-62
2022/12/09 13:53:24;;;;;;;10.93;5.85;;;;;;;2.69;91.84;98882.47;5074990;28;20060;-61
2022/12/09 13:56:03;;;;;;;16.58;6.55;;;;;;;2.65;90.77;98877.66;5075002;28;20458;-62
2022/12/09 13:58:53;;;;;;;11.15;6.35;;;;;;;2.68;90.14;98882.63;5074966;28;20097;-62
2022/12/09 14:01:43;;;;;;;11.27;6.22;;;;;;;2.73;89.92;98885.59;5074516;28;20538;-62
2022/12/09 14:04:20;;;;;;;10.40;5.22;;;;;;;2.74;90.68;98884.63;5074564;28;20036;-62
2022/12/09 14:06:45;;;;;;;14.30;7.20;;;;;;;2.72;90.07;98886.56;5074752;28;20495;-62
2022/12/09 14:09:27;;;;;;;15.02;6.40;;;;;;;2.73;89.55;98880.34;5074636;28;20107;-62
2022/12/09 14:11:54;;;;;;;14.10;6.85;;;;;;;2.67;89.47;98873.06;5074155;28;20107;-62
2022/12/09 14:14:23;;;;;;;14.85;6.55;;;;;;;2.71;90.62;98884.94;5056564;28;20078;-62
2022/12/09 14:16:55;;;;;;;16.20;5.95;;;;;;;2.68;89.54;98880.81;5075489;28;20123;-60
2022/12/09 14:19:24;;;;;;;16.17;6.75;;;;;;;2.69;89.24;98892.16;5056994;28;20044;-61
2022/12/09 14:22:18;;;;;;;12.23;6.93;;;;;;;2.71;89.23;98885.75;5061255;28;20020;-61
2022/12/09 14:24:57;;;;;;;15.75;6.10;;;;;;;2.72;90.32;98894.47;5059001;28;20477;-62
2022/12/09 14:27:28;;;;;;;14.55;7.80;;;;;;;2.71;90.00;98887.56;5074332;28;20452;-60
2022/12/09 14:30:03;;;;;;;13.55;5.88;;;;;;;2.76;89.96;98889.72;5074149;28;20028;-62
2022/12/09 14:32:54;;;;;;;12.40;5.68;;;;;;;2.74;90.70;98897.78;5074026;28;20059;-61
2022/12/09 14:35:25;;;;;;;10.38;5.85;;;;;;;2.74;89.61;98903.03;5073896;28;20492;-61
2022/12/09 14:38:07;;;;;;;17.08;8.18;;;;;;;2.64;90.54;98904.94;5074205;28;20036;-62
2022/12/09 14:40:42;;;;;;;7.95;5.72;;;;;;;2.72;90.60;98913.69;5055883;28;20028;-61
2022/12/09 14:43:33;;;;;;;12.52;6.50;;;;;;;2.66;90.91;98916.13;5074081;28;20039;-62
2022/12/09 14:46:01;;;;;;;11.45;6.65;;;;;;;2.66;91.53;98919.56;5055968;28;20036;-62
2022/12/09 14:48:37;;;;;;;11.57;6.43;;;;;;;2.65;91.16;98917.94;5073808;28;20040;-62
2022/12/09 14:51:16;;;;;;;11.32;5.63;;;;;;;2.67;91.55;98916.00;5073534;28;20085;-61
2022/12/09 14:53:45;;;;;;;14.68;6.70;;;;;;;2.57;91.76;98922.31;5073522;28;20032;-62
2022/12/09 14:56:19;;;;;;;11.93;6.63;;;;;;;2.55;92.35;98919.03;5055828;28;20028;-62
2022/12/09 14:58:48;;;;;;;9.57;5.95;;;;;;;2.51;92.77;98918.50;5073747;28;20088;-62
2022/12/09 15:01:13;;;;;;;11.38;5.93;;;;;;;2.50;93.75;98914.22;5073411;28;20044;-62
2022/12/09 15:03:39;;;;;;;13.98;5.72;;;;;;;2.50;94.94;98929.19;5055593;28;20051;-62
2022/12/09 15:06:25;;;;;;;9.07;5.68;;;;;;;2.51;93.66;98922.94;5073439;28;20406;-62
2022/12/09 15:08:57;;;;;;;12.67;5.33;;;;;;;2.53;93.09;98939.38;5073555;28;20071;-62
2022/12/09 15:11:30;;;;;;;17.83;6.63;;;;;;;2.58;92.57;98939.75;5055223;28;20036;-62
2022/12/09 15:14:25;;;;;;;12.85;6.45;;;;;;;2.55;93.76;98937.44;5073455;28;20043;-63
2022/12/09 15:16:42;;;;;;;12.77;6.80;;;;;;;2.58;93.14;98943.19;5073179;28;20589;-61
2022/12/09 15:19:23;;;;;;;12.38;6.70;;;;;;;2.55;94.36;98940.06;5073301;28;20032;-63
2022/12/09 15:21:49;;;;;;;12.27;6.25;;;;;;;2.54;93.42;98943.66;5073032;28;20032;-61
2022/12/09 15:24:16;;;;;;;16.33;7.80;;;;;;;2.52;94.30;98948.25;5073196;28;20032;-60
2022/12/09 15:26:42;;;;;;;14.15;7.45;;;;;;;2.43;95.13;98939.47;5073741;28;20054;-61
2022/12/09 15:29:20;;;;;;;17.77;6.97;;;;;;;2.50;94.68;98944.94;5073134;28;20032;-60
2022/12/09 15:31:48;;;;;;;13.88;6.95;;;;;;;2.47;95.80;98937.34;5054789;28;20032;-60
2022/12/09 15:34:18;;;;;;;13.40;6.15;;;;;;;2.49;95.52;98943.31;5073066;28;20115;-62
2022/12/09 15:36:54;;;;;;;14.18;6.43;;;;;;;2.43;95.78;98945.56;5073051;28;20112;-62
2022/12/09 15:39:32;;;;;;;12.57;6.82;;;;;;;2.43;95.19;98950.81;5073105;28;20036;-61
2022/12/09 15:42:09;;;;;;;14.18;6.85;;;;;;;2.39;96.54;98943.38;5072558;28;20362;-62
2022/12/09 15:44:54;;;;;;;12.50;6.17;;;;;;;2.40;96.78;98948.47;5054929;28;20102;-62
2022/12/09 15:47:26;;;;;;;14.90;6.68;;;;;;;2.38;97.05;98941.72;5054744;28;20197;-62
2022/12/09 15:50:02;;;;;;;12.73;6.38;;;;;;;2.38;96.90;98947.81;5072757;28;20101;-58
2022/12/09 15:52:36;;;;;;;14.77;6.78;;;;;;;2.41;97.28;98951.94;5072454;28;20113;-60
2022/12/09 15:55:06;;;;;;;11.35;6.82;;;;;;;2.31;97.04;98952.03;5072642;28;20043;-59
2022/12/09 15:57:34;;;;;;;11.50;6.15;;;;;;;2.35;97.38;98953.38;5072539;28;20041;-61
2022/12/09 15:59:59;;;;;;;13.48;6.25;;;;;;;2.37;97.66;98951.41;5072331;28;20041;-61
2022/12/09 16:02:27;;;;;;;10.40;5.60;;;;;;;2.28;98.85;98947.09;5072291;28;20039;-62
2022/12/09 16:04:55;;;;;;;;;;;;;;;2.33;99.19;98952.69;5072207;28;20648;-59
2022/12/09 16:07:24;;;;;;;13.48;6.63;;;;;;;2.34;97.71;98946.44;5072246;28;19912;-62
2022/12/09 16:10:16;;;;;;;13.00;6.72;;;;;;;2.37;97.53;98948.78;5072345;28;20054;-61
2022/12/09 16:12:43;;;;;;;14.27;7.78;;;;;;;2.38;97.53;98950.44;5072292;28;20547;-62
2022/12/09 16:15:12;;;;;;;18.10;7.47;;;;;;;2.37;97.52;98951.41;5072381;28;20024;-62
2022/12/09 16:18:00;;;;;;;17.08;7.88;;;;;;;2.37;97.71;98954.06;5072150;28;20040;-62
2022/12/09 16:20:34;;;;;;;13.82;7.20;;;;;;;2.40;98.43;98955.53;5071826;28;20036;-62
2022/12/09 16:23:02;;;;;;;13.65;7.00;;;;;;;2.39;99.26;98954.72;5072016;28;20044;-61
2022/12/09 16:25:34;;;;;;;14.07;7.25;;;;;;;2.41;99.51;98951.94;5072825;28;20036;-62
2022/12/09 16:28:02;;;;;;;14.65;8.65;;;;;;;2.44;99.69;98956.91;5072170;28;20412;-61
2022/12/09 16:30:31;;;;;;;11.45;6.28;;;;;;;2.37;99.89;98955.84;5072039;28;20473;-62
2022/12/09 16:32:58;;;;;;;15.18;6.65;;;;;;;2.39;99.71;98956.53;5072609;28;20052;-58
2022/12/09 16:35:39;;;;;;;12.45;7.43;;;;;;;2.40;99.25;98951.09;5072191;28;20101;-62
2022/12/09 16:38:10;;;;;;;14.82;7.38;;;;;;;2.42;99.52;98957.06;5071810;28;20481;-63
2022/12/09 16:40:45;;;;;;;8.68;5.97;;;;;;;2.41;99.84;98952.78;5053469;28;20101;-63
2022/12/09 16:43:16;;;;;;;17.50;7.07;;;;;;;2.36;99.80;98952.41;5071678;28;20043;-62
2022/12/09 16:45:48;;;;;;;18.42;7.60;;;;;;;2.37;100.00;98955.84;5071468;28;20132;-63
2022/12/09 16:48:16;;;;;;;18.40;7.88;;;;;;;2.40;99.34;98955.53;5071654;28;20085;-62
2022/12/09 16:50:54;;;;;;;25.13;9.65;;;;;;;2.43;99.61;98956.06;5053324;28;20107;-62
2022/12/09 16:53:24;;;;;;;18.13;9.98;;;;;;;2.42;99.50;98957.06;5071814;28;20129;-62
2022/12/09 16:55:54;;;;;;;25.33;10.48;;;;;;;2.42;99.52;98962.31;5071457;28;20044;-69
2022/12/09 16:58:20;;;;;;;20.70;8.35;;;;;;;2.45;99.90;98967.25;5071519;28;20472;-68
2022/12/09 17:00:46;;;;;;;15.85;8.32;;;;;;;2.45;100.00;98964.63;5071134;28;20127;-68
2022/12/09 17:03:26;;;;;;;14.88;7.80;;;;;;;2.48;99.75;98976.66;5071344;28;20085;-68
2022/12/09 17:05:51;;;;;;;13.90;7.78;;;;;;;2.42;100.00;98978.09;5071408;28;20347;-68
2022/12/09 17:08:16;;;;;;;19.77;8.13;;;;;;;2.49;100.00;98975.66;5071326;28;20178;-68
2022/12/09 17:10:42;;;;;;;15.63;7.28;;;;;;;2.51;100.00;98978.97;5070987;28;20040;-68
2022/12/09 17:13:09;;;;;;;12.68;7.57;;;;;;;2.48;100.00;98976.66;5071446;28;20602;-68
2022/12/09 17:15:34;;;;;;;16.73;8.50;;;;;;;2.48;100.00;98976.66;5071307;28;20481;-68
2022/12/09 17:18:00;;;;;;;14.88;7.38;;;;;;;2.48;100.00;98978.44;5071327;28;20111;-68
2022/12/09 17:20:25;;;;;;;14.75;7.88;;;;;;;2.49;100.00;98974.84;5071028;28;20047;-68
2022/12/09 17:22:51;;;;;;;21.52;7.78;;;;;;;2.50;100.00;98981.75;5071265;28;20079;-68